createdAt,value
2018-07-28T00:00:00.060Z,23.54
2018-07-28T00:01:00.030Z,23.51
2018-07-28T00:02:00.032Z,23.51
2018-07-28T00:03:00.005Z,23.51
2018-07-28T00:03:59.989Z,23.46
2018-07-28T00:04:59.975Z,23.43
2018-07-28T00:05:59.963Z,23.38
2018-07-28T00:06:59.948Z,23.35
2018-07-28T00:07:59.945Z,23.35
2018-07-28T00:08:59.920Z,23.38
2018-07-28T00:09:59.907Z,23.33
2018-07-28T00:10:59.894Z,23.38
2018-07-28T00:11:59.880Z,23.50
2018-07-28T00:12:59.879Z,23.55
2018-07-28T00:13:59.853Z,23.63
2018-07-28T00:14:59.840Z,23.70
2018-07-28T00:15:59.828Z,23.68
2018-07-28T00:16:59.816Z,23.66
2018-07-28T00:17:59.809Z,23.50
2018-07-28T00:18:59.789Z,23.63
2018-07-28T00:19:59.773Z,23.61
2018-07-28T00:20:59.758Z,23.69
2018-07-28T00:21:59.745Z,23.69
2018-07-28T00:22:59.764Z,23.68
2018-07-28T00:23:59.719Z,23.69
2018-07-28T00:24:59.705Z,23.70
2018-07-28T00:25:59.691Z,23.72
2018-07-28T00:26:59.681Z,23.69
2018-07-28T00:27:59.666Z,23.60
2018-07-28T00:28:59.662Z,23.60
2018-07-28T00:29:59.638Z,23.65
2018-07-28T00:30:59.627Z,23.57
2018-07-28T00:31:59.613Z,23.63
2018-07-28T00:32:59.597Z,23.58
2018-07-28T00:33:59.598Z,23.61
2018-07-28T00:34:59.570Z,23.57
2018-07-28T00:35:59.557Z,23.61
2018-07-28T00:36:59.544Z,23.69
2018-07-28T00:37:59.533Z,23.84
2018-07-28T00:38:59.516Z,23.88
2018-07-28T00:39:59.511Z,23.94
2018-07-28T00:40:59.490Z,23.90
2018-07-28T00:41:59.477Z,23.94
2018-07-28T00:42:59.461Z,23.95
2018-07-28T00:43:59.449Z,23.93
2018-07-28T00:44:59.445Z,23.91
2018-07-28T00:45:59.422Z,23.93
2018-07-28T00:46:59.408Z,23.90
2018-07-28T00:47:59.397Z,23.90
2018-07-28T00:48:59.380Z,23.79
2018-07-28T00:49:59.380Z,23.76
2018-07-28T00:50:59.353Z,23.75
2018-07-28T00:51:59.341Z,23.76
2018-07-28T00:52:59.325Z,23.70
2018-07-28T00:53:59.313Z,23.72
2018-07-28T00:54:59.299Z,23.72
2018-07-28T00:55:59.298Z,23.63
2018-07-28T00:56:59.272Z,23.58
2018-07-28T00:57:59.259Z,23.57
2018-07-28T00:58:59.246Z,23.61
2018-07-28T00:59:59.234Z,23.58
2018-07-28T01:00:59.249Z,23.58
2018-07-28T01:01:59.204Z,23.61
2018-07-28T01:02:59.191Z,23.55
2018-07-28T01:03:59.178Z,23.55
2018-07-28T01:04:59.163Z,23.58
2018-07-28T01:05:59.150Z,23.57
2018-07-28T01:06:59.168Z,23.65
2018-07-28T01:07:59.123Z,23.72
2018-07-28T01:08:59.109Z,23.69
2018-07-28T01:09:59.096Z,23.78
2018-07-28T01:10:59.085Z,23.70
2018-07-28T01:11:59.070Z,23.69
2018-07-28T01:12:59.064Z,23.72
2018-07-28T01:13:59.042Z,23.72
2018-07-28T01:14:59.031Z,23.61
2018-07-28T01:15:59.016Z,23.53
2018-07-28T01:16:59.000Z,23.60
2018-07-28T01:17:58.998Z,23.51
2018-07-28T01:18:58.977Z,23.51
2018-07-28T01:19:58.960Z,23.51
2018-07-28T01:20:58.956Z,23.43
2018-07-28T01:21:58.935Z,23.42
2018-07-28T01:22:58.934Z,23.38
2018-07-28T01:23:58.906Z,23.42
2018-07-28T01:24:58.892Z,23.31
2018-07-28T01:25:58.879Z,23.16
2018-07-28T01:26:58.865Z,23.13
2018-07-28T01:27:58.852Z,23.10
2018-07-28T01:28:58.847Z,23.04
2018-07-28T01:29:58.823Z,23.04
2018-07-28T01:30:58.810Z,23.00
2018-07-28T01:31:58.797Z,23.05
2018-07-28T01:32:58.784Z,23.10
2018-07-28T01:33:58.777Z,23.12
2018-07-28T01:34:58.756Z,23.05
2018-07-28T01:35:58.741Z,23.01
2018-07-28T01:36:58.729Z,23.02
2018-07-28T01:37:58.714Z,23.04
2018-07-28T01:38:58.711Z,22.95
2018-07-28T01:39:58.686Z,22.86
2018-07-28T01:40:58.672Z,22.86
2018-07-28T01:41:58.659Z,22.88
2018-07-28T01:42:58.648Z,22.91
2018-07-28T01:43:58.641Z,22.86
2018-07-28T01:44:58.618Z,22.94
2018-07-28T01:45:58.604Z,22.91
2018-07-28T01:46:58.593Z,22.90
2018-07-28T01:47:58.577Z,22.90
2018-07-28T01:48:58.573Z,22.82
2018-07-28T01:49:58.550Z,22.97
2018-07-28T01:50:58.536Z,22.94
2018-07-28T01:51:58.525Z,22.94
2018-07-28T01:52:58.508Z,22.97
2018-07-28T01:53:58.503Z,23.02
2018-07-28T01:54:58.480Z,23.01
2018-07-28T01:55:58.467Z,23.04
2018-07-28T01:56:58.455Z,22.94
2018-07-28T01:57:58.439Z,23.01
2018-07-28T01:58:58.438Z,23.09
2018-07-28T01:59:58.412Z,22.98
2018-07-28T02:00:58.396Z,23.05
2018-07-28T02:01:58.383Z,23.04
2018-07-28T02:02:58.369Z,22.92
2018-07-28T02:03:58.359Z,23.01
2018-07-28T02:04:58.353Z,23.05
2018-07-28T02:05:58.328Z,22.91
2018-07-28T02:06:58.316Z,22.92
2018-07-28T02:07:58.301Z,22.97
2018-07-28T02:08:58.285Z,22.97
2018-07-28T02:09:58.282Z,22.83
2018-07-28T02:10:58.258Z,22.83
2018-07-28T02:11:58.244Z,22.79
2018-07-28T02:12:58.230Z,22.79
2018-07-28T02:13:58.216Z,22.73
2018-07-28T02:14:58.213Z,22.68
2018-07-28T02:15:58.188Z,22.72
2018-07-28T02:16:58.174Z,22.60
2018-07-28T02:17:58.162Z,22.58
2018-07-28T02:18:58.147Z,22.61
2018-07-28T02:19:58.142Z,22.54
2018-07-28T02:20:58.118Z,22.55
2018-07-28T02:21:58.105Z,22.51
2018-07-28T02:22:58.090Z,22.51
2018-07-28T02:23:58.078Z,22.49
2018-07-28T02:24:58.077Z,22.47
2018-07-28T02:25:58.048Z,22.42
2018-07-28T02:26:58.035Z,22.40
2018-07-28T02:27:58.021Z,22.40
2018-07-28T02:28:58.026Z,22.42
2018-07-28T02:29:57.992Z,22.42
2018-07-28T02:30:57.992Z,22.40
2018-07-28T02:31:57.965Z,22.37
2018-07-28T02:32:57.950Z,22.31
2018-07-28T02:33:57.972Z,22.39
2018-07-28T02:34:57.923Z,22.28
2018-07-28T02:35:57.911Z,22.28
2018-07-28T02:36:57.904Z,22.28
2018-07-28T02:37:57.881Z,22.28
2018-07-28T02:38:57.865Z,22.28
2018-07-28T02:39:57.858Z,22.31
2018-07-28T02:40:57.839Z,22.33
2018-07-28T02:41:57.850Z,22.22
2018-07-28T02:42:57.810Z,22.21
2018-07-28T02:43:57.801Z,22.27
2018-07-28T02:44:57.782Z,22.18
2018-07-28T02:45:57.769Z,22.10
2018-07-28T02:46:57.819Z,22.06
2018-07-28T02:47:57.749Z,21.98
2018-07-28T02:48:57.726Z,21.90
2018-07-28T02:49:57.712Z,21.99
2018-07-28T02:50:59.479Z,21.84
2018-07-28T02:51:57.683Z,21.94
2018-07-28T02:52:57.685Z,21.99
2018-07-28T02:53:57.654Z,21.86
2018-07-28T02:54:57.640Z,21.83
2018-07-28T02:55:57.636Z,21.90
2018-07-28T02:56:57.614Z,22.00
2018-07-28T02:57:57.598Z,21.90
2018-07-28T02:58:57.594Z,21.99
2018-07-28T02:59:57.570Z,22.06
2018-07-28T03:00:57.556Z,22.00
2018-07-28T03:01:57.541Z,22.05
2018-07-28T03:02:57.527Z,22.15
2018-07-28T03:03:57.528Z,22.20
2018-07-28T03:04:57.498Z,22.27
2018-07-28T03:05:57.484Z,22.21
2018-07-28T03:06:57.470Z,22.24
2018-07-28T03:07:57.454Z,22.14
2018-07-28T03:08:57.460Z,22.15
2018-07-28T03:09:57.437Z,21.99
2018-07-28T03:10:57.413Z,21.86
2018-07-28T03:11:57.400Z,21.86
2018-07-28T03:12:57.384Z,21.71
2018-07-28T03:13:57.370Z,21.65
2018-07-28T03:14:57.374Z,21.65
2018-07-28T03:15:57.345Z,21.67
2018-07-28T03:16:57.326Z,21.61
2018-07-28T03:17:57.314Z,21.56
2018-07-28T03:18:57.298Z,21.53
2018-07-28T03:19:57.285Z,21.46
2018-07-28T03:20:57.292Z,21.56
2018-07-28T03:21:57.256Z,21.58
2018-07-28T03:22:57.242Z,21.59
2018-07-28T03:23:57.229Z,21.56
2018-07-28T03:24:57.214Z,21.53
2018-07-28T03:25:57.209Z,21.53
2018-07-28T03:26:57.188Z,21.40
2018-07-28T03:27:57.170Z,21.38
2018-07-28T03:28:57.155Z,21.40
2018-07-28T03:29:57.141Z,21.43
2018-07-28T03:30:57.135Z,21.29
2018-07-28T03:31:57.112Z,21.28
2018-07-28T03:32:57.097Z,21.19
2018-07-28T03:33:57.083Z,21.14
2018-07-28T03:34:57.068Z,21.29
2018-07-28T03:35:57.068Z,21.25
2018-07-28T03:36:57.037Z,21.24
2018-07-28T03:37:57.025Z,21.29
2018-07-28T03:38:57.011Z,21.43
2018-07-28T03:39:56.997Z,21.42
2018-07-28T03:40:56.981Z,21.37
2018-07-28T03:41:56.977Z,21.38
2018-07-28T03:42:56.953Z,21.25
2018-07-28T03:43:56.939Z,21.42
2018-07-28T03:44:56.923Z,21.38
2018-07-28T03:45:56.910Z,21.43
2018-07-28T03:46:56.928Z,21.42
2018-07-28T03:47:56.881Z,21.52
2018-07-28T03:48:56.866Z,21.43
2018-07-28T03:49:56.853Z,21.27
2018-07-28T03:50:56.837Z,21.27
2018-07-28T03:51:56.823Z,21.21
2018-07-28T03:52:56.819Z,21.29
2018-07-28T03:53:56.794Z,21.21
2018-07-28T03:54:56.780Z,21.24
2018-07-28T03:55:56.766Z,21.37
2018-07-28T03:56:56.749Z,21.29
2018-07-28T03:57:56.748Z,21.28
2018-07-28T03:58:56.721Z,21.32
2018-07-28T03:59:56.709Z,21.46
2018-07-28T04:00:56.690Z,21.40
2018-07-28T04:01:56.679Z,21.49
2018-07-28T04:02:56.672Z,21.69
2018-07-28T04:03:56.648Z,21.69
2018-07-28T04:04:56.665Z,21.84
2018-07-28T04:05:56.624Z,21.94
2018-07-28T04:06:56.609Z,21.86
2018-07-28T04:07:56.607Z,22.05
2018-07-28T04:08:56.576Z,22.05
2018-07-28T04:09:56.561Z,22.06
2018-07-28T04:10:56.546Z,21.99
2018-07-28T04:11:56.533Z,21.98
2018-07-28T04:12:56.520Z,21.88
2018-07-28T04:13:56.512Z,21.69
2018-07-28T04:14:56.489Z,21.71
2018-07-28T04:15:56.474Z,21.68
2018-07-28T04:16:56.460Z,21.62
2018-07-28T04:17:56.444Z,21.53
2018-07-28T04:18:56.442Z,21.53
2018-07-28T04:19:56.416Z,21.49
2018-07-28T04:20:56.402Z,21.50
2018-07-28T04:21:56.387Z,21.42
2018-07-28T04:22:56.374Z,21.37
2018-07-28T04:23:56.374Z,21.37
2018-07-28T04:24:56.344Z,21.32
2018-07-28T04:25:56.334Z,21.34
2018-07-28T04:26:56.316Z,21.40
2018-07-28T04:27:56.301Z,21.40
2018-07-28T04:28:56.287Z,21.43
2018-07-28T04:29:56.281Z,21.49
2018-07-28T04:30:56.257Z,21.53
2018-07-28T04:31:56.254Z,21.58
2018-07-28T04:32:56.227Z,21.59
2018-07-28T04:33:56.226Z,21.54
2018-07-28T04:34:56.201Z,21.67
2018-07-28T04:35:56.185Z,21.64
2018-07-28T04:36:56.221Z,21.56
2018-07-28T04:37:56.159Z,21.52
2018-07-28T04:38:56.148Z,21.52
2018-07-28T04:39:56.159Z,21.54
2018-07-28T04:40:56.114Z,21.74
2018-07-28T04:41:56.098Z,21.69
2018-07-28T04:42:56.084Z,21.83
2018-07-28T04:43:56.108Z,21.88
2018-07-28T04:44:56.055Z,21.92
2018-07-28T04:45:56.051Z,21.92
2018-07-28T04:46:56.027Z,21.99
2018-07-28T04:47:56.013Z,21.96
2018-07-28T04:48:55.997Z,21.98
2018-07-28T04:49:55.982Z,22.05
2018-07-28T04:50:55.980Z,22.17
2018-07-28T04:51:55.962Z,22.22
2018-07-28T04:52:55.943Z,22.33
2018-07-28T04:53:55.927Z,22.45
2018-07-28T04:54:55.913Z,22.51
2018-07-28T04:55:55.929Z,22.54
2018-07-28T04:56:55.884Z,22.68
2018-07-28T04:57:55.869Z,22.72
2018-07-28T04:58:55.853Z,22.79
2018-07-28T04:59:55.842Z,22.92
2018-07-28T05:00:55.827Z,23.01
2018-07-28T05:01:55.823Z,23.05
2018-07-28T05:02:55.799Z,23.04
2018-07-28T05:03:55.785Z,23.05
2018-07-28T05:04:55.770Z,23.12
2018-07-28T05:05:55.757Z,23.28
2018-07-28T05:06:55.760Z,23.38
2018-07-28T05:07:55.729Z,23.40
2018-07-28T05:08:55.715Z,23.36
2018-07-28T05:09:55.701Z,23.50
2018-07-28T05:10:55.687Z,23.51
2018-07-28T05:11:55.674Z,23.42
2018-07-28T05:12:55.671Z,23.38
2018-07-28T05:13:55.646Z,23.31
2018-07-28T05:14:55.633Z,23.35
2018-07-28T05:15:55.673Z,23.40
2018-07-28T05:16:55.606Z,23.42
2018-07-28T05:17:55.602Z,23.61
2018-07-28T05:18:55.578Z,23.53
2018-07-28T05:19:55.565Z,23.58
2018-07-28T05:20:55.551Z,23.61
2018-07-28T05:21:55.537Z,23.58
2018-07-28T05:22:55.538Z,23.73
2018-07-28T05:23:55.512Z,23.72
2018-07-28T05:24:55.496Z,23.78
2018-07-28T05:25:55.486Z,23.69
2018-07-28T05:26:55.472Z,23.75
2018-07-28T05:27:55.457Z,23.83
2018-07-28T05:28:55.454Z,23.78
2018-07-28T05:29:55.431Z,23.76
2018-07-28T05:30:55.417Z,23.75
2018-07-28T05:31:55.405Z,23.69
2018-07-28T05:32:55.390Z,23.75
2018-07-28T05:33:55.387Z,23.70
2018-07-28T05:34:55.365Z,23.58
2018-07-28T05:35:55.352Z,23.51
2018-07-28T05:36:55.342Z,23.51
2018-07-28T05:37:55.328Z,23.51
2018-07-28T05:38:55.366Z,23.53
2018-07-28T05:39:55.298Z,23.68
2018-07-28T05:40:55.284Z,23.58
2018-07-28T05:41:55.274Z,23.58
2018-07-28T05:42:55.279Z,23.69
2018-07-28T05:43:55.245Z,23.65
2018-07-28T05:44:55.240Z,23.72
2018-07-28T05:45:55.217Z,23.85
2018-07-28T05:46:55.205Z,23.83
2018-07-28T05:47:55.193Z,23.90
2018-07-28T05:48:55.178Z,23.85
2018-07-28T05:49:55.196Z,23.95
2018-07-28T05:50:55.155Z,24.00
2018-07-28T05:51:55.139Z,23.87
2018-07-28T05:52:55.125Z,23.84
2018-07-28T05:53:55.112Z,23.70
2018-07-28T05:54:55.099Z,23.70
2018-07-28T05:55:55.101Z,23.55
2018-07-28T05:56:55.071Z,23.58
2018-07-28T05:57:55.059Z,23.58
2018-07-28T05:58:55.046Z,23.42
2018-07-28T05:59:55.035Z,23.35
2018-07-28T06:00:55.028Z,23.23
2018-07-28T06:01:55.005Z,23.12
2018-07-28T06:02:54.993Z,23.17
2018-07-28T06:03:54.983Z,23.13
2018-07-28T06:05:06.056Z,23.05
2018-07-28T06:05:54.968Z,22.90
2018-07-28T06:06:54.938Z,22.58
2018-07-28T06:07:54.925Z,22.57
2018-07-28T06:08:54.910Z,22.54
2018-07-28T06:09:54.896Z,22.54
2018-07-28T06:10:54.885Z,22.40
2018-07-28T06:11:54.884Z,22.30
2018-07-28T06:12:54.857Z,22.30
2018-07-28T06:13:54.843Z,22.36
2018-07-28T06:14:54.830Z,22.39
2018-07-28T06:15:54.817Z,22.27
2018-07-28T06:16:54.818Z,22.30
2018-07-28T06:17:54.789Z,22.20
2018-07-28T06:18:54.775Z,22.35
2018-07-28T06:19:54.765Z,22.33
2018-07-28T06:20:54.749Z,22.35
2018-07-28T06:21:55.529Z,22.36
2018-07-28T06:22:54.733Z,22.35
2018-07-28T06:23:54.743Z,22.37
2018-07-28T06:24:54.709Z,22.39
2018-07-28T06:25:54.730Z,22.46
2018-07-28T06:26:54.668Z,22.62
2018-07-28T06:27:54.667Z,22.65
2018-07-28T06:28:54.640Z,22.83
2018-07-28T06:29:54.627Z,22.82
2018-07-28T06:30:54.614Z,22.98
2018-07-28T06:31:54.623Z,23.12
2018-07-28T06:32:54.601Z,23.12
2018-07-28T06:33:54.574Z,23.20
2018-07-28T06:34:54.560Z,23.35
2018-07-28T06:35:54.547Z,23.40
2018-07-28T06:36:54.532Z,23.35
2018-07-28T06:37:54.520Z,23.36
2018-07-28T06:38:54.523Z,23.28
2018-07-28T06:39:54.494Z,23.36
2018-07-28T06:40:54.481Z,23.36
2018-07-28T06:42:03.608Z,23.33
2018-07-28T06:42:54.454Z,23.40
2018-07-28T06:43:54.438Z,23.48
2018-07-28T06:44:54.439Z,23.50
2018-07-28T06:45:54.414Z,23.54
2018-07-28T06:46:54.398Z,23.65
2018-07-28T06:47:54.388Z,23.72
2018-07-28T06:48:54.372Z,23.72
2018-07-28T06:49:54.630Z,23.72
2018-07-28T06:50:54.347Z,23.88
2018-07-28T06:51:54.333Z,23.98
2018-07-28T06:52:54.318Z,24.06
2018-07-28T06:53:54.316Z,24.16
2018-07-28T06:54:54.294Z,24.28
2018-07-28T06:55:54.280Z,24.37
2018-07-28T06:56:54.273Z,24.53
2018-07-28T06:57:55.049Z,24.53
2018-07-28T06:58:54.255Z,24.62
2018-07-28T06:59:54.227Z,24.81
2018-07-28T07:00:55.047Z,24.95
2018-07-28T07:01:54.202Z,25.05
2018-07-28T07:02:54.194Z,25.27
2018-07-28T07:03:54.190Z,25.51
2018-07-28T07:04:54.184Z,25.61
2018-07-28T07:05:54.149Z,25.47
2018-07-28T07:06:54.137Z,25.23
2018-07-28T07:07:54.125Z,25.25
2018-07-28T07:08:54.114Z,25.18
2018-07-28T07:09:54.108Z,25.18
2018-07-28T07:10:54.092Z,25.18
2018-07-28T07:11:54.076Z,25.45
2018-07-28T07:12:54.062Z,25.51
2018-07-28T07:13:54.049Z,25.62
2018-07-28T07:14:54.068Z,26.02
2018-07-28T07:15:54.025Z,26.51
2018-07-28T07:16:54.007Z,26.69
2018-07-28T07:17:54.004Z,26.69
2018-07-28T07:18:53.987Z,26.88
2018-07-28T07:19:53.976Z,27.32
2018-07-28T07:20:53.977Z,27.31
2018-07-28T07:21:53.952Z,27.60
2018-07-28T07:22:53.940Z,27.31
2018-07-28T07:23:53.927Z,27.81
2018-07-28T07:24:53.916Z,27.88
2018-07-28T07:25:53.903Z,27.47
2018-07-28T07:26:53.903Z,27.19
2018-07-28T07:27:53.882Z,27.03
2018-07-28T07:28:53.869Z,26.77
2018-07-28T07:29:53.857Z,26.43
2018-07-28T07:30:53.848Z,26.29
2018-07-28T07:31:53.849Z,26.12
2018-07-28T07:32:53.837Z,25.97
2018-07-28T07:33:53.814Z,25.79
2018-07-28T07:34:53.800Z,25.65
2018-07-28T07:35:53.790Z,25.69
2018-07-28T07:36:53.777Z,25.64
2018-07-28T07:37:53.776Z,25.70
2018-07-28T07:38:53.751Z,25.61
2018-07-28T07:39:53.745Z,25.57
2018-07-28T07:40:53.731Z,25.67
2018-07-28T07:41:53.720Z,25.61
2018-07-28T07:42:53.718Z,25.55
2018-07-28T07:43:53.699Z,25.65
2018-07-28T07:44:53.687Z,25.72
2018-07-28T07:45:53.672Z,25.95
2018-07-28T07:46:53.662Z,25.80
2018-07-28T07:47:53.665Z,25.62
2018-07-28T07:48:53.641Z,25.70
2018-07-28T07:49:53.627Z,25.69
2018-07-28T07:50:53.616Z,25.60
2018-07-28T07:51:53.603Z,25.70
2018-07-28T07:52:53.591Z,25.80
2018-07-28T07:53:53.616Z,25.76
2018-07-28T07:54:53.569Z,25.60
2018-07-28T07:55:53.558Z,25.57
2018-07-28T07:56:53.544Z,25.61
2018-07-28T07:57:53.534Z,25.61
2018-07-28T07:58:53.532Z,25.57
2018-07-28T07:59:53.515Z,25.50
2018-07-28T08:00:53.501Z,25.40
2018-07-28T08:01:53.489Z,25.27
2018-07-28T08:02:53.476Z,25.28
2018-07-28T08:03:53.473Z,25.25
2018-07-28T08:04:53.518Z,25.32
2018-07-28T08:05:53.440Z,25.27
2018-07-28T08:06:53.431Z,25.30
2018-07-28T08:07:53.417Z,25.28
2018-07-28T08:08:53.413Z,25.21
2018-07-28T08:09:53.393Z,25.36
2018-07-28T08:10:53.381Z,25.30
2018-07-28T08:11:53.373Z,25.39
2018-07-28T08:12:53.358Z,25.43
2018-07-28T08:13:53.356Z,25.52
2018-07-28T08:14:53.333Z,25.54
2018-07-28T08:15:53.323Z,25.65
2018-07-28T08:16:53.310Z,25.58
2018-07-28T08:17:53.304Z,25.67
2018-07-28T08:18:53.300Z,25.69
2018-07-28T08:19:53.274Z,25.64
2018-07-28T08:20:53.268Z,25.80
2018-07-28T08:21:53.249Z,25.91
2018-07-28T08:22:53.238Z,26.07
2018-07-28T08:23:53.243Z,25.95
2018-07-28T08:24:53.214Z,26.05
2018-07-28T08:25:53.202Z,26.05
2018-07-28T08:26:53.298Z,26.17
2018-07-28T08:27:53.179Z,26.25
2018-07-28T08:28:53.167Z,26.37
2018-07-28T08:29:53.166Z,26.37
2018-07-28T08:30:53.144Z,26.43
2018-07-28T08:31:53.134Z,26.50
2018-07-28T08:32:53.121Z,26.54
2018-07-28T08:33:53.109Z,26.40
2018-07-28T08:34:53.111Z,26.25
2018-07-28T08:35:53.087Z,26.29
2018-07-28T08:36:53.075Z,26.30
2018-07-28T08:37:53.075Z,26.37
2018-07-28T08:38:53.052Z,26.37
2018-07-28T08:39:53.080Z,26.32
2018-07-28T08:40:53.038Z,26.02
2018-07-28T08:41:53.022Z,26.25
2018-07-28T08:42:53.006Z,26.39
2018-07-28T08:43:52.995Z,26.36
2018-07-28T08:44:52.984Z,26.44
2018-07-28T08:45:52.982Z,26.54
2018-07-28T08:46:52.960Z,26.58
2018-07-28T08:47:52.949Z,26.50
2018-07-28T08:48:52.975Z,26.37
2018-07-28T08:49:52.927Z,26.23
2018-07-28T08:50:52.929Z,26.33
2018-07-28T08:51:52.907Z,26.43
2018-07-28T08:52:52.893Z,26.52
2018-07-28T08:53:52.882Z,26.54
2018-07-28T08:54:52.877Z,26.57
2018-07-28T08:55:52.872Z,26.58
2018-07-28T08:56:52.848Z,26.51
2018-07-28T08:57:52.837Z,26.40
2018-07-28T08:58:52.826Z,26.40
2018-07-28T08:59:52.815Z,26.47
2018-07-28T09:00:52.813Z,26.52
2018-07-28T09:01:52.793Z,26.44
2018-07-28T09:02:52.782Z,26.65
2018-07-28T09:03:52.770Z,26.77
2018-07-28T09:04:52.759Z,26.95
2018-07-28T09:05:52.795Z,27.06
2018-07-28T09:06:52.742Z,27.21
2018-07-28T09:07:52.725Z,27.31
2018-07-28T09:08:52.716Z,27.51
2018-07-28T09:09:52.788Z,27.46
2018-07-28T09:10:52.703Z,27.27
2018-07-28T09:11:52.683Z,27.39
2018-07-28T09:12:52.672Z,27.21
2018-07-28T09:13:52.659Z,27.32
2018-07-28T09:14:52.650Z,27.25
2018-07-28T09:15:52.654Z,27.22
2018-07-28T09:16:52.627Z,27.43
2018-07-28T09:17:52.620Z,27.43
2018-07-28T09:18:52.606Z,27.63
2018-07-28T09:19:52.596Z,27.77
2018-07-28T09:20:52.584Z,27.57
2018-07-28T09:21:52.588Z,27.50
2018-07-28T09:22:52.564Z,27.65
2018-07-28T09:23:52.555Z,27.67
2018-07-28T09:24:52.541Z,27.36
2018-07-28T09:25:52.533Z,27.37
2018-07-28T09:26:52.531Z,27.19
2018-07-28T09:27:52.511Z,27.19
2018-07-28T09:28:52.509Z,27.18
2018-07-28T09:29:52.491Z,27.29
2018-07-28T09:30:52.480Z,27.49
2018-07-28T09:31:52.480Z,27.79
2018-07-28T09:32:52.460Z,27.82
2018-07-28T09:33:52.454Z,27.75
2018-07-28T09:34:52.440Z,28.06
2018-07-28T09:35:52.429Z,28.14
2018-07-28T09:36:52.520Z,28.34
2018-07-28T09:37:52.488Z,28.61
2018-07-28T09:38:52.399Z,28.67
2018-07-28T09:39:52.391Z,28.51
2018-07-28T09:40:52.383Z,28.56
2018-07-28T09:41:52.400Z,28.83
2018-07-28T09:42:52.358Z,29.04
2018-07-28T09:43:52.349Z,28.89
2018-07-28T09:44:52.338Z,29.00
2018-07-28T09:45:52.329Z,28.89
2018-07-28T09:46:52.377Z,28.83
2018-07-28T09:47:52.319Z,28.67
2018-07-28T09:48:52.299Z,28.68
2018-07-28T09:49:52.291Z,28.49
2018-07-28T09:50:52.281Z,28.62
2018-07-28T09:51:52.271Z,28.76
2018-07-28T09:52:52.271Z,28.81
2018-07-28T09:53:52.252Z,28.55
2018-07-28T09:54:52.240Z,28.33
2018-07-28T09:55:52.233Z,28.77
2018-07-28T09:56:52.224Z,29.21
2018-07-28T09:57:52.231Z,29.52
2018-07-28T09:58:52.205Z,29.42
2018-07-28T09:59:52.201Z,29.48
2018-07-28T10:00:52.185Z,29.58
2018-07-28T10:01:52.175Z,29.57
2018-07-28T10:02:52.168Z,29.87
2018-07-28T10:03:52.166Z,29.86
2018-07-28T10:04:52.146Z,29.65
2018-07-28T10:05:52.135Z,29.64
2018-07-28T10:06:52.128Z,29.74
2018-07-28T10:07:52.119Z,29.87
2018-07-28T10:08:52.170Z,30.00
2018-07-28T10:09:52.101Z,29.94
2018-07-28T10:10:52.092Z,29.71
2018-07-28T10:11:52.086Z,29.48
2018-07-28T10:12:52.075Z,29.19
2018-07-28T10:13:52.081Z,29.08
2018-07-28T10:14:52.059Z,29.34
2018-07-28T10:15:52.050Z,29.21
2018-07-28T10:16:52.036Z,29.43
2018-07-28T10:17:52.030Z,29.42
2018-07-28T10:18:52.019Z,29.48
2018-07-28T10:19:52.022Z,29.64
2018-07-28T10:20:51.999Z,29.70
2018-07-28T10:21:51.991Z,29.83
2018-07-28T10:22:52.052Z,29.83
2018-07-28T10:23:51.973Z,30.00
2018-07-28T10:24:51.977Z,30.02
2018-07-28T10:25:51.953Z,30.13
2018-07-28T10:26:51.945Z,30.22
2018-07-28T10:27:51.935Z,30.20
2018-07-28T10:28:51.925Z,29.87
2018-07-28T10:29:51.917Z,29.65
2018-07-28T10:30:51.923Z,29.65
2018-07-28T10:31:51.900Z,29.74
2018-07-28T10:32:51.891Z,29.79
2018-07-28T10:33:51.880Z,29.55
2018-07-28T10:34:51.871Z,29.76
2018-07-28T10:35:51.872Z,29.76
2018-07-28T10:36:51.855Z,29.82
2018-07-28T10:37:51.845Z,29.85
2018-07-28T10:38:51.835Z,29.87
2018-07-28T10:39:51.830Z,29.80
2018-07-28T10:40:51.833Z,29.76
2018-07-28T10:41:51.808Z,29.89
2018-07-28T10:42:51.799Z,29.57
2018-07-28T10:43:51.788Z,29.43
2018-07-28T10:44:51.780Z,29.52
2018-07-28T10:45:51.775Z,29.67
2018-07-28T10:46:51.776Z,29.21
2018-07-28T10:47:51.754Z,29.24
2018-07-28T10:48:51.742Z,28.85
2018-07-28T10:49:51.734Z,28.81
2018-07-28T10:50:51.725Z,28.74
2018-07-28T10:51:51.728Z,28.83
2018-07-28T10:52:51.719Z,29.21
2018-07-28T10:53:51.698Z,29.23
2018-07-28T10:54:51.688Z,29.39
2018-07-28T10:55:51.681Z,29.51
2018-07-28T10:56:51.669Z,29.68
2018-07-28T10:57:51.668Z,29.85
2018-07-28T10:58:51.653Z,29.74
2018-07-28T10:59:51.642Z,29.89
2018-07-28T11:00:51.632Z,29.85
2018-07-28T11:01:51.623Z,30.11
2018-07-28T11:02:51.630Z,30.19
2018-07-28T11:03:51.605Z,30.27
2018-07-28T11:04:51.595Z,30.01
2018-07-28T11:05:51.587Z,29.42
2018-07-28T11:06:51.577Z,29.34
2018-07-28T11:07:51.570Z,29.60
2018-07-28T11:08:51.567Z,29.92
2018-07-28T11:09:51.551Z,30.46
2018-07-28T11:10:51.543Z,30.88
2018-07-28T11:11:51.533Z,31.17
2018-07-28T11:12:51.537Z,31.92
2018-07-28T11:13:51.514Z,31.88
2018-07-28T11:14:51.507Z,32.48
2018-07-28T11:15:51.497Z,32.85
2018-07-28T11:16:51.486Z,33.31
2018-07-28T11:17:51.479Z,33.32
2018-07-28T11:18:51.512Z,33.31
2018-07-28T11:19:51.460Z,32.92
2018-07-28T11:20:51.450Z,31.89
2018-07-28T11:21:51.442Z,31.78
2018-07-28T11:22:51.433Z,31.66
2018-07-28T11:23:51.443Z,31.16
2018-07-28T11:24:51.419Z,31.68
2018-07-28T11:25:51.422Z,31.44
2018-07-28T11:26:51.398Z,31.04
2018-07-28T11:27:51.391Z,30.64
2018-07-28T11:28:51.380Z,30.00
2018-07-28T11:29:51.381Z,29.82
2018-07-28T11:30:51.363Z,29.51
2018-07-28T11:31:51.361Z,29.48
2018-07-28T11:32:51.345Z,29.23
2018-07-28T11:33:51.337Z,28.95
2018-07-28T11:34:51.336Z,28.83
2018-07-28T11:35:51.319Z,28.71
2018-07-28T11:36:51.312Z,28.68
2018-07-28T11:37:51.325Z,28.61
2018-07-28T11:38:51.290Z,28.44
2018-07-28T11:39:51.294Z,28.29
2018-07-28T11:40:51.272Z,28.22
2018-07-28T11:41:51.263Z,28.18
2018-07-28T11:42:51.253Z,28.18
2018-07-28T11:43:51.242Z,28.34
2018-07-28T11:44:51.265Z,28.27
2018-07-28T11:45:51.261Z,28.27
2018-07-28T11:46:51.214Z,28.04
2018-07-28T11:47:51.204Z,27.93
2018-07-28T11:48:51.196Z,27.84
2018-07-28T11:49:51.183Z,27.77
2018-07-28T11:50:51.190Z,27.75
2018-07-28T11:51:51.169Z,27.77
2018-07-28T11:52:51.155Z,27.87
2018-07-28T11:53:51.144Z,27.82
2018-07-28T11:54:51.134Z,27.85
2018-07-28T11:55:51.140Z,27.87
2018-07-28T11:56:51.118Z,27.92
2018-07-28T11:57:51.107Z,28.00
2018-07-28T11:58:51.095Z,27.93
2018-07-28T11:59:51.084Z,27.96
2018-07-28T12:00:51.074Z,27.93
2018-07-28T12:01:51.128Z,27.94
2018-07-28T12:02:51.054Z,28.02
2018-07-28T12:03:51.045Z,28.11
2018-07-28T12:04:51.032Z,28.21
2018-07-28T12:05:51.023Z,28.22
2018-07-28T12:06:51.023Z,28.03
2018-07-28T12:07:51.002Z,28.07
2018-07-28T12:08:50.992Z,28.36
2018-07-28T12:09:50.979Z,29.36
2018-07-28T12:10:50.974Z,29.86
2018-07-28T12:11:50.971Z,30.99
2018-07-28T12:12:50.948Z,32.14
2018-07-28T12:13:50.938Z,32.28
2018-07-28T12:14:50.929Z,32.67
2018-07-28T12:15:50.922Z,33.31
2018-07-28T12:16:50.919Z,33.79
2018-07-28T12:17:50.908Z,33.11
2018-07-28T12:18:50.898Z,33.60
2018-07-28T12:19:50.885Z,33.50
2018-07-28T12:20:50.863Z,34.05
2018-07-28T12:21:50.868Z,34.77
2018-07-28T12:22:50.850Z,34.89
2018-07-28T12:23:50.867Z,34.87
2018-07-28T12:24:50.830Z,34.88
2018-07-28T12:25:50.822Z,35.16
2018-07-28T12:26:50.822Z,35.40
2018-07-28T12:27:50.803Z,35.66
2018-07-28T12:28:50.796Z,35.78
2018-07-28T12:29:50.794Z,35.92
2018-07-28T12:30:50.823Z,36.47
2018-07-28T12:31:50.784Z,36.64
2018-07-28T12:32:50.760Z,36.57
2018-07-28T12:33:50.750Z,36.87
2018-07-28T12:34:50.806Z,37.02
2018-07-28T12:35:50.739Z,37.37
2018-07-28T12:36:50.724Z,37.02
2018-07-28T12:37:50.727Z,36.85
2018-07-28T12:38:50.710Z,36.84
2018-07-28T12:39:50.701Z,36.87
2018-07-28T12:40:50.692Z,36.64
2018-07-28T12:41:50.684Z,35.36
2018-07-28T12:42:50.684Z,35.11
2018-07-28T12:43:50.667Z,35.06
2018-07-28T12:44:50.656Z,33.84
2018-07-28T12:45:50.652Z,32.57
2018-07-28T12:46:50.644Z,32.11
2018-07-28T12:47:50.646Z,31.84
2018-07-28T12:48:50.627Z,32.07
2018-07-28T12:49:50.622Z,32.06
2018-07-28T12:50:50.613Z,31.44
2018-07-28T12:51:50.603Z,31.39